Time;durP1;ratioP1;P1;durP2;ratioP2;P2;SDS_P1;SDS_P2;PMS_P1;PMS_P2;Temp;Humidity;BMP_temperature;BMP_pressure;BME280_temperature;BME280_humidity;BME280_pressure;Samples;Min_cycle;Max_cycle;Signal;HPM_P1;HPM_P2
2021/08/05 00:01:00;;;;;;;2.63;0.73;;;;;;;18.79;66.25;99285.28;5131849;27;20035;-54
2021/08/05 00:03:27;;;;;;;1.95;0.77;;;;;;;18.81;65.98;99280.50;5131325;27;20993;-54
2021/08/05 00:05:53;;;;;;;2.67;1.02;;;;;;;18.79;66.11;99275.38;5131347;27;20027;-54
2021/08/05 00:08:18;;;;;;;3.20;0.90;;;;;;;18.78;66.25;99276.44;5132898;27;20087;-54
2021/08/05 00:10:44;;;;;;;1.75;0.75;;;;;;;18.76;66.34;99277.72;5133341;27;20465;-54
2021/08/05 00:13:10;;;;;;;2.58;1.00;;;;;;;18.73;66.33;99273.63;5133214;27;20043;-54
2021/08/05 00:15:35;;;;;;;2.08;0.80;;;;;;;18.74;66.18;99267.25;5133235;27;20039;-54
2021/08/05 00:18:02;;;;;;;2.30;0.88;;;;;;;18.72;66.28;99256.75;5133324;27;20024;-55
2021/08/05 00:20:27;;;;;;;3.20;1.10;;;;;;;18.70;66.28;99250.81;5133152;27;20160;-55
2021/08/05 00:22:53;;;;;;;2.35;0.95;;;;;;;18.72;66.30;99248.72;5133021;27;20103;-54
2021/08/05 00:25:19;;;;;;;3.30;1.00;;;;;;;18.72;66.25;99246.06;5114763;27;20031;-54
2021/08/05 00:27:45;;;;;;;2.28;0.80;;;;;;;18.70;66.32;99236.59;5132911;27;20034;-54
2021/08/05 00:30:12;;;;;;;3.60;1.33;;;;;;;18.69;66.47;99237.66;5113977;27;20087;-54
2021/08/05 00:32:37;;;;;;;3.50;1.20;;;;;;;18.67;66.53;99237.88;5132857;27;20069;-53
2021/08/05 00:35:07;;;;;;;3.03;0.80;;;;;;;18.68;66.46;99228.00;5114612;27;20096;-53
2021/08/05 00:37:34;;;;;;;4.55;1.20;;;;;;;18.70;66.49;99228.56;5114087;27;20084;-54
2021/08/05 00:39:59;;;;;;;3.70;1.13;;;;;;;18.74;66.51;99212.88;5114341;27;20023;-53
2021/08/05 00:42:25;;;;;;;3.80;1.23;;;;;;;18.74;66.38;99213.69;5114424;27;20031;-54
2021/08/05 00:44:51;;;;;;;1.98;1.08;;;;;;;18.71;66.53;99208.81;5132845;27;20042;-53
2021/08/05 00:47:17;;;;;;;2.42;0.88;;;;;;;18.70;66.31;99202.63;5133122;27;20121;-54
2021/08/05 00:49:43;;;;;;;2.00;1.00;;;;;;;18.71;66.44;99195.44;5132479;27;20023;-54
2021/08/05 00:52:09;;;;;;;2.13;1.08;;;;;;;18.67;66.44;99188.88;5114294;27;20515;-55
2021/08/05 00:54:35;;;;;;;3.08;0.90;;;;;;;18.67;66.49;99186.22;5113913;27;20039;-54
2021/08/05 00:57:01;;;;;;;3.83;0.95;;;;;;;18.67;66.53;99189.72;5114265;27;20028;-54
2021/08/05 00:59:27;;;;;;;2.28;0.90;;;;;;;18.68;66.29;99180.63;5097289;27;20381;-54
2021/08/05 01:01:58;;;;;;;2.58;1.13;;;;;;;18.67;66.16;99173.66;5113773;27;20042;-54
2021/08/05 01:04:23;;;;;;;2.08;0.80;;;;;;;18.65;66.12;99154.31;5114054;27;20457;-54
2021/08/05 01:06:52;;;;;;;4.53;1.00;;;;;;;18.63;66.21;99160.97;5132513;27;20054;-54
2021/08/05 01:09:46;;;;;;;4.22;0.90;;;;;;;18.60;66.16;99149.66;5114169;27;20051;-54
2021/08/05 01:12:23;;;;;;;3.20;1.15;;;;;;;18.59;66.26;99156.06;5132056;27;20042;-54
2021/08/05 01:15:13;;;;;;;2.90;0.85;;;;;;;18.59;66.05;99147.22;5132034;27;20389;-55
2021/08/05 01:17:44;;;;;;;3.50;1.20;;;;;;;18.59;66.05;99137.34;5130920;27;20175;-54
2021/08/05 01:20:15;;;;;;;6.13;0.90;;;;;;;18.59;66.19;99136.50;5113812;27;20038;-55
2021/08/05 01:22:54;;;;;;;3.30;0.90;;;;;;;18.58;66.08;99130.38;5113290;27;20043;-54
2021/08/05 01:25:38;;;;;;;2.40;1.02;;;;;;;18.55;66.07;99127.31;5132243;27;20572;-53
2021/08/05 01:28:05;;;;;;;2.65;0.90;;;;;;;18.56;66.04;99124.41;5132185;28;20034;-53
2021/08/05 01:30:32;;;;;;;3.58;1.20;;;;;;;18.57;66.03;99125.25;5114051;28;20036;-53
2021/08/05 01:32:59;;;;;;;2.40;0.90;;;;;;;18.56;66.06;99108.38;5131489;28;20035;-53
2021/08/05 01:35:26;;;;;;;2.97;0.88;;;;;;;18.55;65.98;99112.09;5132006;28;20107;-54
2021/08/05 01:37:53;;;;;;;2.33;0.88;;;;;;;18.53;66.03;99102.66;5112515;28;20026;-54
2021/08/05 01:40:20;;;;;;;7.07;0.80;;;;;;;18.53;65.99;99099.97;5111576;28;20041;-54
2021/08/05 01:42:46;;;;;;;5.63;1.35;;;;;;;18.52;66.02;99090.31;5113747;28;20122;-54
2021/08/05 01:45:14;;;;;;;3.25;0.85;;;;;;;18.51;65.81;99091.34;5113474;28;20110;-54
2021/08/05 01:47:40;;;;;;;2.50;1.05;;;;;;;18.52;65.78;99076.94;5132803;28;20074;-54
2021/08/05 01:50:10;;;;;;;1.73;0.63;;;;;;;18.50;65.93;99069.16;5113721;28;20038;-53
2021/08/05 01:52:37;;;;;;;4.85;0.82;;;;;;;18.49;65.84;99062.16;5131941;28;20060;-53
2021/08/05 01:55:06;;;;;;;3.90;0.90;;;;;;;18.49;65.78;99056.00;5113005;28;20028;-54
2021/08/05 01:57:33;;;;;;;4.28;0.77;;;;;;;18.51;65.60;99049.38;5132039;28;20059;-54
2021/08/05 01:59:58;;;;;;;3.13;0.80;;;;;;;18.52;65.67;99047.53;5113657;28;20031;-53
2021/08/05 02:02:24;;;;;;;2.83;0.88;;;;;;;18.50;65.79;99044.25;5113392;28;20031;-54
2021/08/05 02:05:05;;;;;;;6.50;0.90;;;;;;;18.50;66.07;99038.91;5113978;27;20114;-53
2021/08/05 02:07:37;;;;;;;5.03;1.20;;;;;;;18.48;65.93;99028.44;5116840;27;20027;-53
2021/08/05 02:10:13;;;;;;;3.20;0.60;;;;;;;18.47;65.98;99027.59;5135902;27;20023;-53
2021/08/05 02:12:54;;;;;;;3.72;0.95;;;;;;;18.46;66.33;99017.13;5117286;27;20062;-54
2021/08/05 02:15:20;;;;;;;4.13;0.90;;;;;;;18.46;66.32;99015.28;5117069;27;20024;-54
2021/08/05 02:17:49;;;;;;;4.13;1.10;;;;;;;18.42;66.73;99015.97;5117305;27;20031;-53
2021/08/05 02:20:16;;;;;;;2.47;0.68;;;;;;;18.40;66.72;99005.50;5134649;27;20027;-54
2021/08/05 02:22:44;;;;;;;2.63;0.80;;;;;;;18.42;66.72;99010.63;5135158;27;20039;-54
2021/08/05 02:25:12;;;;;;;2.88;0.68;;;;;;;18.40;66.75;99000.16;5135566;27;20362;-53
2021/08/05 02:27:40;;;;;;;3.83;1.13;;;;;;;18.38;66.61;98999.56;5117174;27;20035;-53
2021/08/05 02:30:07;;;;;;;3.13;0.82;;;;;;;18.38;66.88;98998.78;5117449;27;20084;-53
2021/08/05 02:32:34;;;;;;;3.22;0.90;;;;;;;18.37;66.74;98989.09;5116885;27;20038;-54
2021/08/05 02:35:03;;;;;;;6.22;1.20;;;;;;;18.38;66.74;98986.19;5115256;27;20027;-53
2021/08/05 02:37:29;;;;;;;2.38;0.85;;;;;;;18.35;66.80;98973.28;5113322;28;20032;-54
2021/08/05 02:39:55;;;;;;;4.68;1.05;;;;;;;18.31;67.06;98959.59;5125041;27;20413;-53
2021/08/05 02:42:21;;;;;;;1.40;0.50;;;;;;;18.32;67.12;98955.03;5133286;27;20182;-53
2021/08/05 02:44:48;;;;;;;4.53;1.33;;;;;;;18.31;67.08;98950.75;5134834;27;20087;-53
2021/08/05 02:47:15;;;;;;;2.13;0.68;;;;;;;18.33;67.02;98944.09;5117298;27;20638;-53
2021/08/05 02:49:41;;;;;;;2.63;0.70;;;;;;;18.31;67.08;98935.53;5116894;27;20027;-54
2021/08/05 02:52:08;;;;;;;2.20;0.63;;;;;;;18.32;67.15;98925.63;5116547;27;20042;-53
2021/08/05 02:54:34;;;;;;;4.85;0.82;;;;;;;18.32;67.17;98929.13;5099639;27;20039;-53
2021/08/05 02:57:02;;;;;;;3.03;0.88;;;;;;;18.31;67.18;98916.78;5116833;27;20591;-53
2021/08/05 02:59:28;;;;;;;2.70;0.63;;;;;;;18.28;67.32;98927.13;5116449;27;20050;-54
2021/08/05 03:01:54;;;;;;;4.05;1.13;;;;;;;18.28;67.43;98909.25;5134978;27;20046;-54
2021/08/05 03:04:20;;;;;;;3.15;1.02;;;;;;;18.28;67.27;98903.06;5134634;27;20049;-54
2021/08/05 03:06:46;;;;;;;3.80;0.77;;;;;;;18.28;67.18;98897.72;5116313;27;20027;-53
2021/08/05 03:09:13;;;;;;;4.65;1.05;;;;;;;18.27;67.27;98885.41;5134739;27;20030;-53
2021/08/05 03:11:39;;;;;;;3.60;0.73;;;;;;;18.30;67.23;98877.72;5134574;27;20031;-53
2021/08/05 03:14:05;;;;;;;2.88;0.80;;;;;;;18.30;67.19;98876.91;5134813;27;20553;-53
2021/08/05 03:16:30;;;;;;;5.13;1.00;;;;;;;18.30;67.26;98872.34;5134190;27;20438;-53
2021/08/05 03:18:56;;;;;;;2.08;0.60;;;;;;;18.26;67.41;98859.69;5134572;27;20039;-53
2021/08/05 03:21:22;;;;;;;3.60;0.98;;;;;;;18.23;67.47;98859.09;5115988;27;20034;-53
2021/08/05 03:23:48;;;;;;;2.72;0.65;;;;;;;18.22;67.61;98856.66;5134149;27;20520;-53
2021/08/05 03:26:14;;;;;;;5.30;1.27;;;;;;;18.19;67.56;98852.59;5134490;27;20031;-53
2021/08/05 03:28:39;;;;;;;4.63;0.90;;;;;;;18.17;67.46;98851.22;5134388;27;20111;-53
2021/08/05 03:31:05;;;;;;;2.25;0.77;;;;;;;18.15;67.17;98851.47;5099067;27;20035;-53
2021/08/05 03:33:31;;;;;;;5.40;0.80;;;;;;;18.16;67.14;98846.91;5134013;27;20069;-53
2021/08/05 03:35:57;;;;;;;3.05;0.90;;;;;;;18.14;67.05;98838.31;5133731;27;20035;-54
2021/08/05 03:38:22;;;;;;;2.60;0.85;;;;;;;18.15;66.84;98839.94;5133851;27;20035;-54
2021/08/05 03:40:48;;;;;;;2.58;0.52;;;;;;;18.14;66.77;98827.63;5115789;27;20042;-54
2021/08/05 03:43:14;;;;;;;2.88;0.98;;;;;;;18.14;66.51;98825.75;5133960;27;20055;-53
2021/08/05 03:45:40;;;;;;;7.07;1.10;;;;;;;18.12;66.50;98813.66;5133959;27;20061;-53
2021/08/05 03:48:05;;;;;;;4.60;0.80;;;;;;;18.13;66.43;98809.94;5134649;27;20027;-54
2021/08/05 03:50:31;;;;;;;3.90;0.95;;;;;;;18.10;66.47;98797.84;5134042;27;20042;-53
2021/08/05 03:52:57;;;;;;;2.65;0.70;;;;;;;18.09;66.17;98798.91;5133828;27;20058;-54
2021/08/05 03:55:23;;;;;;;3.85;0.80;;;;;;;18.07;66.30;98801.81;5133769;27;20042;-53
2021/08/05 03:57:48;;;;;;;3.33;0.70;;;;;;;18.10;66.00;98811.22;5133672;27;20092;-53
2021/08/05 04:00:17;;;;;;;3.58;0.98;;;;;;;18.08;65.86;98794.56;5133430;27;20031;-53
2021/08/05 04:02:43;;;;;;;2.45;0.80;;;;;;;18.05;65.88;98784.34;5133789;27;22056;-54
2021/08/05 04:05:09;;;;;;;2.30;0.80;;;;;;;18.06;65.94;98777.97;5133640;27;20560;-54
2021/08/05 04:07:35;;;;;;;4.38;0.70;;;;;;;18.06;66.09;98772.63;5133487;27;20529;-54
2021/08/05 04:10:02;;;;;;;3.35;0.75;;;;;;;18.03;65.81;98760.53;5133498;27;20069;-54
2021/08/05 04:12:28;;;;;;;3.10;1.33;;;;;;;18.04;65.72;98758.69;5133431;27;20088;-53
2021/08/05 04:14:53;;;;;;;7.72;1.00;;;;;;;18.01;65.66;98733.25;5133438;27;20035;-53
2021/08/05 04:17:19;;;;;;;2.50;0.90;;;;;;;17.98;65.81;98725.69;5133368;27;20076;-53
2021/08/05 04:19:45;;;;;;;3.05;0.75;;;;;;;17.98;65.62;98726.47;5133598;27;20031;-54
2021/08/05 04:22:10;;;;;;;3.28;0.82;;;;;;;17.97;65.65;98724.88;5133163;27;20106;-53
2021/08/05 04:24:36;;;;;;;5.13;0.75;;;;;;;17.96;65.86;98711.75;5133222;27;20609;-53
2021/08/05 04:27:02;;;;;;;4.25;0.80;;;;;;;17.95;66.06;98705.56;5133087;27;20028;-53
2021/08/05 04:29:27;;;;;;;2.97;1.05;;;;;;;17.95;65.94;98700.22;5132600;27;20031;-53
2021/08/05 04:31:53;;;;;;;2.53;0.80;;;;;;;17.95;66.18;98686.88;5133083;27;20047;-53
2021/08/05 04:34:19;;;;;;;3.53;0.80;;;;;;;17.94;66.21;98698.63;5132622;27;20505;-53
2021/08/05 04:36:44;;;;;;;2.00;0.80;;;;;;;17.93;66.39;98696.19;5132961;27;20034;-53
2021/08/05 04:39:10;;;;;;;4.13;0.88;;;;;;;17.92;66.55;98683.84;5133020;27;20039;-53
2021/08/05 04:41:36;;;;;;;4.13;1.00;;;;;;;17.91;66.80;98676.88;5132939;27;20031;-53
2021/08/05 04:44:01;;;;;;;4.75;0.90;;;;;;;17.88;66.81;98680.84;5132827;27;20043;-53
2021/08/05 04:46:27;;;;;;;1.70;0.60;;;;;;;17.85;67.15;98678.66;5133447;27;20408;-53
2021/08/05 04:48:54;;;;;;;2.97;0.80;;;;;;;17.87;67.09;98673.06;5132827;27;20043;-53
2021/08/05 04:51:20;;;;;;;4.45;1.52;;;;;;;17.85;67.20;98670.63;5132987;27;20123;-54
2021/08/05 04:53:46;;;;;;;2.38;0.70;;;;;;;17.83;67.01;98651.34;5097317;27;20031;-53
2021/08/05 04:56:12;;;;;;;3.47;0.60;;;;;;;17.83;67.10;98646.81;5132599;27;20397;-54
2021/08/05 04:58:37;;;;;;;3.28;0.68;;;;;;;17.81;67.41;98646.25;5132699;27;20042;-53
2021/08/05 05:01:03;;;;;;;1.17;0.40;;;;;;;17.78;67.41;98636.03;5132387;27;20038;-53
2021/08/05 05:03:28;;;;;;;3.63;0.68;;;;;;;17.79;67.55;98642.97;5132520;27;20031;-53
2021/08/05 05:05:54;;;;;;;1.50;0.60;;;;;;;17.77;67.66;98636.25;5114322;27;20401;-53
2021/08/05 05:08:23;;;;;;;1.65;0.60;;;;;;;17.75;67.70;98636.50;5114124;27;20035;-53
2021/08/05 05:10:52;;;;;;;2.38;0.70;;;;;;;17.78;67.71;98636.03;5132536;27;20034;-54
2021/08/05 05:13:19;;;;;;;1.35;0.60;;;;;;;17.78;67.69;98629.84;5132412;27;20043;-53
2021/08/05 05:15:45;;;;;;;2.53;0.50;;;;;;;17.80;67.71;98622.44;5114170;28;20031;-53
2021/08/05 05:18:12;;;;;;;2.83;0.50;;;;;;;17.77;68.02;98613.03;5132469;27;20035;-53
2021/08/05 05:20:38;;;;;;;2.10;0.80;;;;;;;17.78;67.74;98617.31;5132270;27;20093;-54
2021/08/05 05:23:05;;;;;;;1.48;0.55;;;;;;;17.79;67.91;98610.91;5132171;27;20603;-53
2021/08/05 05:25:33;;;;;;;1.35;0.35;;;;;;;17.80;67.92;98617.09;5131348;28;20027;-53
2021/08/05 05:27:58;;;;;;;2.63;0.40;;;;;;;17.78;68.17;98601.28;5132268;28;20031;-54
2021/08/05 05:30:24;;;;;;;1.55;0.50;;;;;;;17.80;68.02;98603.72;5132348;28;20501;-53
2021/08/05 05:32:50;;;;;;;2.05;0.60;;;;;;;17.78;68.21;98601.28;5132033;28;20034;-53
2021/08/05 05:35:19;;;;;;;3.25;0.40;;;;;;;17.79;68.38;98602.09;5132411;28;20515;-53
2021/08/05 05:37:49;;;;;;;1.00;0.40;;;;;;;17.78;68.26;98598.63;5132113;28;20540;-54
2021/08/05 05:40:15;;;;;;;0.45;0.20;;;;;;;17.78;68.57;98597.78;5135316;27;20023;-53
2021/08/05 05:42:41;;;;;;;1.10;0.52;;;;;;;17.78;68.24;98592.44;5136602;27;20043;-53
2021/08/05 05:45:09;;;;;;;1.05;0.40;;;;;;;17.78;68.51;98582.59;5136367;27;20455;-53
2021/08/05 05:47:35;;;;;;;0.47;0.10;;;;;;;17.80;68.47;98572.47;5117741;27;20038;-53
2021/08/05 05:50:02;;;;;;;0.57;0.30;;;;;;;17.79;68.69;98562.81;5136381;27;20039;-54
2021/08/05 05:52:28;;;;;;;0.40;0.20;;;;;;;17.79;68.85;98552.13;5136202;27;20073;-54
2021/08/05 05:54:54;;;;;;;0.70;0.32;;;;;;;17.77;68.74;98554.25;5136055;27;20035;-54
2021/08/05 05:57:19;;;;;;;0.35;0.30;;;;;;;17.78;69.02;98549.69;5136114;27;20031;-53
2021/08/05 05:59:45;;;;;;;0.63;0.30;;;;;;;17.78;68.95;98544.34;5136075;27;20485;-53
2021/08/05 06:02:10;;;;;;;0.57;0.20;;;;;;;17.78;69.10;98539.81;5135929;27;20035;-54
2021/08/05 06:04:36;;;;;;;1.75;0.30;;;;;;;17.75;69.25;98544.84;5135616;27;20489;-54
2021/08/05 06:07:14;;;;;;;3.75;0.40;;;;;;;17.75;69.31;98531.47;5135149;27;20029;-53
2021/08/05 06:09:39;;;;;;;0.35;0.20;;;;;;;17.77;69.51;98532.88;5135276;27;20064;-53
2021/08/05 06:12:05;;;;;;;0.30;0.20;;;;;;;17.76;69.30;98533.13;5135496;27;20393;-53
2021/08/05 06:14:31;;;;;;;0.45;0.20;;;;;;;17.72;69.89;98527.44;5135317;27;20058;-53
2021/08/05 06:16:57;;;;;;;0.63;0.20;;;;;;;17.72;69.79;98522.09;5135366;27;20406;-53
2021/08/05 06:19:24;;;;;;;0.95;0.30;;;;;;;17.72;69.87;98524.75;5135353;27;20023;-55
2021/08/05 06:21:50;;;;;;;2.15;0.35;;;;;;;17.71;70.02;98515.13;5135239;27;20027;-54
2021/08/05 06:24:16;;;;;;;0.60;0.20;;;;;;;17.68;70.24;98511.06;5134963;27;20121;-55
2021/08/05 06:26:42;;;;;;;0.90;0.30;;;;;;;17.68;70.29;98507.56;5133360;27;20031;-53
2021/08/05 06:29:10;;;;;;;0.75;0.30;;;;;;;17.69;70.42;98503.84;5135471;27;20482;-53
2021/08/05 06:31:36;;;;;;;1.27;0.30;;;;;;;17.68;70.28;98497.69;5135358;27;20102;-53
2021/08/05 06:34:03;;;;;;;1.25;0.20;;;;;;;17.70;70.13;98495.59;5135407;27;20031;-53
2021/08/05 06:36:29;;;;;;;1.23;0.20;;;;;;;17.69;70.28;98493.16;5135619;27;20380;-54
2021/08/05 06:38:55;;;;;;;1.08;0.20;;;;;;;17.69;70.60;98487.84;5135362;27;20027;-53
2021/08/05 06:41:20;;;;;;;1.75;0.20;;;;;;;17.69;70.70;98488.66;5135313;27;20027;-54
2021/08/05 06:43:47;;;;;;;0.98;0.20;;;;;;;17.70;70.59;98474.22;5096417;28;20055;-53
2021/08/05 06:46:13;;;;;;;1.73;0.10;;;;;;;17.71;70.36;98467.03;5115248;28;20035;-53
2021/08/05 06:48:39;;;;;;;0.20;0.10;;;;;;;17.70;70.85;98463.53;5113442;28;20028;-53
2021/08/05 06:51:05;;;;;;;0.50;0.10;;;;;;;17.71;70.71;98459.03;5113823;28;20031;-53
2021/08/05 06:53:30;;;;;;;0.50;0.20;;;;;;;17.70;70.73;98460.88;5114477;28;20035;-53
2021/08/05 06:55:56;;;;;;;1.05;0.20;;;;;;;17.71;70.93;98448.34;5113273;28;20031;-53
2021/08/05 06:58:22;;;;;;;0.88;0.20;;;;;;;17.69;71.03;98437.88;5114641;28;20115;-53
2021/08/05 07:00:49;;;;;;;0.98;0.20;;;;;;;17.72;71.11;98437.41;5123330;27;20046;-55
2021/08/05 07:03:14;;;;;;;0.93;0.15;;;;;;;17.71;70.90;98438.44;5116383;27;20114;-53
2021/08/05 07:05:41;;;;;;;1.67;0.20;;;;;;;17.71;71.11;98427.75;5135032;27;20039;-54
2021/08/05 07:08:07;;;;;;;1.17;0.15;;;;;;;17.70;71.36;98428.81;5134978;27;20409;-53
2021/08/05 07:10:33;;;;;;;2.63;0.20;;;;;;;17.70;71.33;98426.13;5134724;27;20473;-53
2021/08/05 07:12:59;;;;;;;0.85;0.17;;;;;;;17.68;71.48;98411.38;5134562;27;20031;-53
2021/08/05 07:15:25;;;;;;;2.67;0.13;;;;;;;17.71;71.30;98418.94;5134821;27;20038;-53
2021/08/05 07:17:50;;;;;;;1.50;0.30;;;;;;;17.70;71.36;98406.63;5134613;27;20027;-53
2021/08/05 07:20:18;;;;;;;1.52;0.20;;;;;;;17.71;71.41;98403.72;5134500;27;20474;-53
2021/08/05 07:22:45;;;;;;;0.43;0.20;;;;;;;17.73;71.46;98398.13;5134222;27;20035;-53
2021/08/05 07:25:13;;;;;;;0.70;0.20;;;;;;;17.72;71.75;98385.81;5134683;27;20438;-53
2021/08/05 07:27:39;;;;;;;1.83;0.25;;;;;;;17.72;71.77;98385.81;5116044;27;20088;-53
2021/08/05 07:30:09;;;;;;;0.28;0.10;;;;;;;17.70;71.91;98375.38;5134222;27;20502;-54
2021/08/05 07:32:34;;;;;;;0.85;0.17;;;;;;;17.72;71.71;98369.78;5134191;27;20027;-53
2021/08/05 07:35:01;;;;;;;0.63;0.10;;;;;;;17.72;71.87;98370.63;5134083;27;20712;-53
2021/08/05 07:37:27;;;;;;;0.63;0.17;;;;;;;17.73;71.69;98369.56;5134243;27;20042;-53
2021/08/05 07:39:52;;;;;;;0.40;0.13;;;;;;;17.73;72.05;98366.06;5134473;27;20042;-53
2021/08/05 07:42:19;;;;;;;0.30;0.20;;;;;;;17.75;71.82;98358.63;5134059;27;20722;-54
2021/08/05 07:44:48;;;;;;;0.50;0.25;;;;;;;17.73;72.22;98366.88;5133914;27;20122;-53
2021/08/05 07:47:14;;;;;;;0.65;0.15;;;;;;;17.71;72.61;98362.84;5134552;27;20374;-53
2021/08/05 07:49:40;;;;;;;0.63;0.15;;;;;;;17.73;72.55;98358.88;5115525;27;20037;-54
2021/08/05 07:52:06;;;;;;;0.35;0.10;;;;;;;17.73;72.70;98350.84;5133946;27;20027;-53
2021/08/05 07:54:33;;;;;;;1.35;0.20;;;;;;;17.75;72.58;98347.13;5115475;27;20062;-53
2021/08/05 07:56:59;;;;;;;5.15;0.20;;;;;;;17.73;73.07;98345.50;5133792;27;20031;-53
2021/08/05 07:59:25;;;;;;;1.33;0.32;;;;;;;17.73;73.15;98340.16;5133765;27;20035;-54
2021/08/05 08:01:51;;;;;;;0.95;0.10;;;;;;;17.75;73.21;98337.25;5133356;27;20034;-53
2021/08/05 08:04:17;;;;;;;0.28;0.00;;;;;;;17.72;73.47;98333.22;5132782;27;20039;-53
2021/08/05 08:06:42;;;;;;;0.50;0.10;;;;;;;17.74;73.53;98332.97;5133609;27;20042;-53
2021/08/05 08:09:08;;;;;;;0.55;0.10;;;;;;;17.72;73.62;98335.88;5133853;27;20062;-53
2021/08/05 08:11:34;;;;;;;1.20;0.10;;;;;;;17.73;73.90;98325.97;5133617;27;20121;-54
2021/08/05 08:14:00;;;;;;;0.20;0.10;;;;;;;17.74;74.00;98332.97;5133423;27;20658;-54
2021/08/05 08:16:26;;;;;;;1.30;0.22;;;;;;;17.72;74.37;98324.38;5114954;27;20034;-53
2021/08/05 08:18:52;;;;;;;0.10;0.00;;;;;;;17.72;74.57;98322.53;5133448;27;20405;-54
2021/08/05 08:21:18;;;;;;;0.10;0.10;;;;;;;17.76;74.38;98303.31;5133181;27;20035;-53
2021/08/05 08:23:45;;;;;;;0.60;0.10;;;;;;;17.76;74.56;98306.00;5133045;27;20055;-53
2021/08/05 08:26:11;;;;;;;0.32;0.20;;;;;;;17.76;74.63;98314.00;5133201;27;20041;-53
2021/08/05 08:28:37;;;;;;;0.15;0.10;;;;;;;17.74;75.02;98303.56;5133231;27;20401;-53
2021/08/05 08:31:03;;;;;;;0.32;0.10;;;;;;;17.73;75.07;98309.94;5114743;27;20085;-53
2021/08/05 08:33:29;;;;;;;0.43;0.10;;;;;;;17.74;75.50;98324.94;5130795;27;20442;-53
2021/08/05 08:35:55;;;;;;;0.10;0.00;;;;;;;17.72;75.70;98319.03;5132453;27;20043;-53
2021/08/05 08:38:25;;;;;;;1.65;0.10;;;;;;;17.73;75.92;98324.13;5132198;27;20038;-53
2021/08/05 08:40:54;;;;;;;0.30;0.10;;;;;;;17.78;75.69;98319.91;5132961;27;20500;-53
2021/08/05 08:43:19;;;;;;;1.67;0.10;;;;;;;17.79;75.85;98316.19;5132466;27;20075;-54
2021/08/05 08:45:46;;;;;;;0.08;0.00;;;;;;;17.82;75.74;98305.03;5132767;27;20110;-54
2021/08/05 08:48:13;;;;;;;0.32;0.10;;;;;;;17.81;76.33;98308.72;5133378;27;20035;-55
2021/08/05 08:50:40;;;;;;;1.08;0.25;;;;;;;17.81;76.80;98300.72;5131782;27;20027;-53
2021/08/05 08:53:09;;;;;;;0.00;0.00;;;;;;;17.81;77.11;98304.19;5132278;27;20055;-53
2021/08/05 08:55:38;;;;;;;0.60;0.10;;;;;;;17.83;77.06;98306.63;5132427;27;20031;-54
2021/08/05 08:58:06;;;;;;;0.00;0.00;;;;;;;17.81;77.20;98296.19;5132337;27;20114;-54
2021/08/05 09:00:36;;;;;;;0.75;0.10;;;;;;;17.85;77.69;98299.19;5132253;27;20050;-54
2021/08/05 09:03:04;;;;;;;1.08;0.10;;;;;;;17.87;77.64;98294.38;5127924;27;20027;-54
2021/08/05 09:05:30;;;;;;;0.30;0.00;;;;;;;17.87;78.16;98283.69;5132164;27;20023;-54
2021/08/05 09:07:59;;;;;;;1.63;0.10;;;;;;;17.89;78.39;98281.59;5129611;27;20350;-53
2021/08/05 09:10:25;;;;;;;0.90;0.10;;;;;;;17.92;78.48;98282.94;5132114;27;20041;-54
2021/08/05 09:12:59;;;;;;;0.45;0.20;;;;;;;17.94;78.22;98288.88;5113655;27;20094;-54
2021/08/05 09:15:51;;;;;;;0.98;0.30;;;;;;;17.96;77.77;98278.75;5113704;27;20047;-54
2021/08/05 09:18:39;;;;;;;8.63;0.40;;;;;;;17.96;77.94;98282.22;5128708;27;20039;-53
2021/08/05 09:21:35;;;;;;;3.58;0.50;;;;;;;17.97;78.24;98272.34;5129612;27;20028;-54
2021/08/05 09:24:09;;;;;;;0.75;0.15;;;;;;;18.00;78.71;98268.38;5094710;27;20034;-53
2021/08/05 09:26:42;;;;;;;2.05;0.20;;;;;;;18.00;78.84;98276.41;5131413;27;20035;-53
2021/08/05 09:29:13;;;;;;;4.35;0.20;;;;;;;18.01;79.04;98264.66;5132177;28;20650;-54
2021/08/05 09:32:03;;;;;;;1.67;0.30;;;;;;;18.03;79.43;98263.34;5131736;28;20515;-53
2021/08/05 09:34:40;;;;;;;0.88;0.20;;;;;;;18.08;79.71;98263.41;5130220;28;20580;-53
2021/08/05 09:37:12;;;;;;;3.13;0.35;;;;;;;18.09;78.14;98264.22;5130260;28;20027;-54
2021/08/05 09:39:39;;;;;;;2.60;0.30;;;;;;;18.12;77.34;98258.41;5131650;28;20034;-53
2021/08/05 09:42:11;;;;;;;14.35;0.73;;;;;;;18.18;79.21;98257.41;5128620;28;20042;-53
2021/08/05 09:44:36;;;;;;;3.08;0.50;;;;;;;18.28;79.51;98254.06;5131337;28;20038;-51
2021/08/05 09:47:02;;;;;;;3.13;0.55;;;;;;;18.37;80.38;98253.59;5131584;28;20110;-52
2021/08/05 09:49:29;;;;;;;4.43;0.63;;;;;;;18.42;80.27;98251.00;5131280;28;20044;-53
2021/08/05 09:51:59;;;;;;;8.15;0.77;;;;;;;18.53;80.00;98247.38;5109126;28;20043;-54
2021/08/05 09:54:51;;;;;;;3.63;0.70;;;;;;;18.60;80.16;98245.28;5111332;28;20095;-53
2021/08/05 09:57:33;;;;;;;1.80;0.45;;;;;;;18.69;79.21;98242.16;5112946;28;20027;-52
2021/08/05 10:00:16;;;;;;;4.13;0.50;;;;;;;18.71;79.73;98240.84;5131757;28;20461;-52
2021/08/05 10:02:51;;;;;;;3.50;0.60;;;;;;;18.78;79.49;98239.84;5130804;28;20122;-53
2021/08/05 10:05:20;;;;;;;2.13;0.80;;;;;;;18.88;79.29;98241.81;5131367;28;20032;-53
2021/08/05 10:07:58;;;;;;;4.30;0.90;;;;;;;18.92;78.82;98241.03;5131000;28;20406;-51
2021/08/05 10:10:27;;;;;;;3.33;0.90;;;;;;;18.96;78.62;98233.31;5131418;28;20168;-53
2021/08/05 10:12:56;;;;;;;3.25;0.70;;;;;;;18.95;78.64;98232.50;5130302;28;20123;-53
2021/08/05 10:15:22;;;;;;;5.18;1.08;;;;;;;18.98;78.55;98223.19;5131387;28;20118;-52
2021/08/05 10:17:52;;;;;;;5.07;0.80;;;;;;;19.00;78.71;98231.72;5070027;27;20048;-56
2021/08/05 10:20:19;;;;;;;4.80;0.80;;;;;;;19.05;79.13;98228.28;5110321;28;20118;-52
2021/08/05 10:22:47;;;;;;;3.03;0.80;;;;;;;19.12;79.05;98220.91;5090336;28;20047;-56
2021/08/05 10:25:15;;;;;;;5.40;0.90;;;;;;;19.17;78.64;98209.41;5089980;28;20103;-56
2021/08/05 10:27:43;;;;;;;3.38;0.47;;;;;;;19.04;75.92;98203.41;5093508;28;20044;-58
2021/08/05 10:30:12;;;;;;;3.25;0.88;;;;;;;19.03;75.59;98201.78;5099576;28;20031;-58
2021/08/05 10:32:38;;;;;;;2.92;0.60;;;;;;;18.96;75.44;98199.34;5103310;28;20035;-55
2021/08/05 10:35:09;;;;;;;3.97;0.70;;;;;;;18.98;76.08;98201.75;5086318;28;20398;-55
2021/08/05 10:37:36;;;;;;;3.75;0.80;;;;;;;18.99;75.79;98205.22;5101331;28;20111;-59
2021/08/05 10:40:05;;;;;;;5.90;0.93;;;;;;;19.03;76.56;98209.81;5109057;28;20096;-58
2021/08/05 10:42:30;;;;;;;3.45;0.80;;;;;;;18.99;76.18;98213.25;5072695;28;20044;-58
2021/08/05 10:44:56;;;;;;;2.13;0.60;;;;;;;18.98;75.90;98207.13;5091637;28;20028;-57
2021/08/05 10:47:28;;;;;;;5.28;1.17;;;;;;;19.01;77.71;98205.78;5091436;28;20478;-61
2021/08/05 10:49:56;;;;;;;3.72;0.80;;;;;;;19.01;75.74;98198.56;5092294;28;20032;-58
2021/08/05 10:52:48;;;;;;;6.93;1.58;;;;;;;18.97;75.03;98200.13;5091686;28;20082;-59
2021/08/05 10:55:16;;;;;;;3.95;1.00;;;;;;;19.03;75.49;98192.97;5091913;28;20051;-57
2021/08/05 10:58:05;;;;;;;3.90;0.52;;;;;;;19.02;74.97;98175.25;5086824;28;20029;-59
2021/08/05 11:00:50;;;;;;;6.30;0.77;;;;;;;19.11;74.20;98184.50;5093344;28;20036;-59
2021/08/05 11:03:38;;;;;;;2.47;0.50;;;;;;;19.14;74.59;98186.66;5089071;28;20050;-57
2021/08/05 11:06:25;;;;;;;7.43;0.70;;;;;;;19.20;74.38;98184.81;5093240;28;20051;-57
2021/08/05 11:08:51;;;;;;;3.55;0.80;;;;;;;19.29;74.65;98179.75;5072722;28;20485;-57
2021/08/05 11:11:19;;;;;;;2.90;0.57;;;;;;;19.32;75.20;98181.94;5073024;28;20063;-59
2021/08/05 11:13:46;;;;;;;3.60;0.75;;;;;;;19.36;74.89;98176.88;5092108;28;20088;-59
2021/08/05 11:16:12;;;;;;;3.58;0.88;;;;;;;19.44;76.24;98174.53;5056784;28;20502;-56
2021/08/05 11:18:37;;;;;;;2.75;0.60;;;;;;;19.49;75.79;98176.41;5072237;28;20036;-57
2021/08/05 11:21:03;;;;;;;1.75;0.65;;;;;;;19.54;75.78;98179.09;5054820;28;20036;-59
2021/08/05 11:23:30;;;;;;;5.53;0.82;;;;;;;19.59;75.34;98178.31;5088792;28;20506;-59
2021/08/05 11:25:55;;;;;;;7.03;1.08;;;;;;;19.64;75.07;98172.19;5093295;28;20036;-60
2021/08/05 11:28:27;;;;;;;2.67;0.68;;;;;;;19.61;74.84;98186.91;5092429;28;20093;-57
2021/08/05 11:30:57;;;;;;;5.38;0.60;;;;;;;19.54;75.31;98187.16;5074205;28;20033;-61
2021/08/05 11:33:42;;;;;;;4.68;0.60;;;;;;;19.48;76.06;98182.81;5092026;28;20051;-61
2021/08/05 11:36:24;;;;;;;2.60;0.80;;;;;;;19.47;76.53;98178.53;5092537;28;20397;-61
2021/08/05 11:39:05;;;;;;;3.10;0.52;;;;;;;19.45;76.67;98178.81;5090176;28;20031;-61